createdAt,value
2023-04-23T00:03:48.544Z,99.90
2023-04-23T00:08:42.279Z,99.90
2023-04-23T00:13:35.145Z,99.90
2023-04-23T00:18:27.166Z,99.90
2023-04-23T00:23:19.215Z,99.90
2023-04-23T00:28:11.326Z,99.90
2023-04-23T00:33:03.629Z,99.90
2023-04-23T00:37:55.987Z,99.90
2023-04-23T00:42:49.228Z,99.90
2023-04-23T00:47:41.946Z,99.90
2023-04-23T00:52:36.048Z,99.90
2023-04-23T00:57:28.199Z,99.90
2023-04-23T01:02:20.931Z,99.90
2023-04-23T01:12:26.221Z,99.90
2023-04-23T01:17:18.301Z,99.90
2023-04-23T01:22:12.425Z,99.90
2023-04-23T01:27:04.670Z,99.90
2023-04-23T01:31:57.989Z,99.90
2023-04-23T01:36:51.130Z,99.90
2023-04-23T01:41:43.914Z,99.90
2023-04-23T01:46:37.001Z,99.90
2023-04-23T01:51:30.841Z,99.90
2023-04-23T01:56:28.232Z,99.90
2023-04-23T02:01:20.753Z,99.90
2023-04-23T02:06:13.701Z,99.90
2023-04-23T02:11:08.883Z,99.90
2023-04-23T02:16:01.080Z,99.90
2023-04-23T02:20:53.870Z,99.90
2023-04-23T02:25:47.349Z,99.90
2023-04-23T02:30:45.285Z,99.90
2023-04-23T02:35:37.384Z,99.90
2023-04-23T02:40:29.472Z,99.90
2023-04-23T02:45:21.738Z,99.90
2023-04-23T02:50:16.578Z,99.90
2023-04-23T02:55:09.604Z,99.90
2023-04-23T03:00:01.870Z,99.90
2023-04-23T03:05:05.449Z,99.90
2023-04-23T03:09:57.568Z,99.90
2023-04-23T03:14:50.096Z,99.90
2023-04-23T03:19:42.437Z,99.90
2023-04-23T03:24:35.379Z,99.90
2023-04-23T03:29:28.333Z,99.90
2023-04-23T03:34:20.994Z,99.90
2023-04-23T03:39:13.023Z,99.90
2023-04-23T03:44:14.477Z,99.90
2023-04-23T03:49:09.661Z,99.90
2023-04-23T03:54:02.166Z,99.90
2023-04-23T03:59:20.635Z,99.90
2023-04-23T04:04:15.928Z,99.90
2023-04-23T04:09:08.948Z,99.90
2023-04-23T04:14:00.994Z,99.90
2023-04-23T04:18:55.125Z,99.90
2023-04-23T04:23:48.423Z,99.90
2023-04-23T04:28:41.008Z,99.90
2023-04-23T04:33:35.647Z,99.90
2023-04-23T04:38:28.626Z,99.90
2023-04-23T04:43:20.710Z,99.90
2023-04-23T04:48:12.810Z,99.90
2023-04-23T04:53:04.849Z,99.90
2023-04-23T04:57:57.186Z,99.90
2023-04-23T05:02:52.608Z,99.90
2023-04-23T05:07:44.900Z,99.90
2023-04-23T05:12:37.352Z,99.90
2023-04-23T05:17:29.382Z,99.90
2023-04-23T05:22:23.324Z,99.90
2023-04-23T05:27:15.459Z,99.90
2023-04-23T05:32:07.663Z,99.90
2023-04-23T05:36:59.976Z,99.90
2023-04-23T05:41:52.031Z,99.90
2023-04-23T05:46:44.088Z,99.90
2023-04-23T05:51:37.335Z,99.90
2023-04-23T05:56:29.403Z,99.90
2023-04-23T06:01:21.667Z,99.90
2023-04-23T06:06:14.092Z,99.90
2023-04-23T06:11:06.647Z,99.90
2023-04-23T06:16:01.112Z,99.90
2023-04-23T06:20:53.370Z,99.90
2023-04-23T06:25:46.740Z,90.20
2023-04-23T06:30:38.768Z,74.60
2023-04-23T06:35:31.421Z,64.40
2023-04-23T06:40:23.406Z,63.40
2023-04-23T06:45:16.469Z,67.90
2023-04-23T06:50:09.137Z,73.90
2023-04-23T06:55:02.599Z,80.40
2023-04-23T06:59:54.640Z,86.00
2023-04-23T07:04:50.548Z,91.20
2023-04-23T07:09:42.604Z,93.40
2023-04-23T07:14:34.676Z,97.50
2023-04-23T07:19:27.582Z,99.90
2023-04-23T07:24:19.638Z,99.90
2023-04-23T07:29:11.999Z,99.90
2023-04-23T07:34:04.034Z,99.90
2023-04-23T07:38:57.229Z,99.90
2023-04-23T07:43:49.364Z,99.90
2023-04-23T07:48:41.401Z,99.90
2023-04-23T07:53:33.527Z,99.90
2023-04-23T07:58:25.865Z,99.90
2023-04-23T08:03:18.307Z,99.90
2023-04-23T08:08:12.114Z,99.90
2023-04-23T08:13:04.444Z,99.90
2023-04-23T08:17:56.555Z,99.90
2023-04-23T08:22:50.245Z,87.50
2023-04-23T08:27:42.306Z,78.20
2023-04-23T08:32:34.450Z,73.40
2023-04-23T08:37:30.849Z,65.40
2023-04-23T08:42:47.791Z,61.20
2023-04-23T08:47:44.554Z,62.40
2023-04-23T08:52:40.802Z,66.70
2023-04-23T08:57:33.349Z,69.70
2023-04-23T09:02:26.585Z,75.50
2023-04-23T09:07:19.091Z,81.60
2023-04-23T09:12:11.286Z,87.40
2023-04-23T09:17:03.867Z,91.10
2023-04-23T09:21:56.152Z,94.30
2023-04-23T09:26:49.932Z,95.00
2023-04-23T09:31:42.633Z,95.50
2023-04-23T09:36:36.908Z,93.70
2023-04-23T09:41:31.190Z,92.90
2023-04-23T09:46:37.821Z,92.60
2023-04-23T09:51:30.755Z,93.30
2023-04-23T09:56:22.900Z,94.50
2023-04-23T10:01:15.506Z,94.60
2023-04-23T10:06:14.250Z,94.30
2023-04-23T10:11:20.453Z,95.80
2023-04-23T10:16:22.456Z,97.00
2023-04-23T10:21:18.154Z,95.90
2023-04-23T10:26:14.972Z,94.10
2023-04-23T10:31:07.193Z,93.60
2023-04-23T10:36:00.335Z,93.00
2023-04-23T10:40:55.346Z,91.40
2023-04-23T10:45:49.391Z,92.50
2023-04-23T10:51:00.183Z,92.50
2023-04-23T10:56:08.050Z,93.60
2023-04-23T11:01:05.835Z,93.60
2023-04-23T11:06:02.988Z,92.60
2023-04-23T11:10:57.049Z,90.50
2023-04-23T11:15:49.202Z,88.60
2023-04-23T11:20:41.297Z,90.50
2023-04-23T11:25:37.685Z,91.60
2023-04-23T11:30:31.201Z,92.00
2023-04-23T11:35:28.404Z,92.10
2023-04-23T11:40:21.432Z,92.30
2023-04-23T11:45:23.301Z,92.30
2023-04-23T11:50:23.495Z,91.20
2023-04-23T11:55:16.858Z,90.40
2023-04-23T12:00:19.031Z,90.90
2023-04-23T12:05:11.687Z,90.00
2023-04-23T12:10:05.063Z,89.40
2023-04-23T12:15:05.202Z,90.80
2023-04-23T12:19:58.377Z,91.70
2023-04-23T12:24:54.886Z,92.10
2023-04-23T12:29:50.827Z,93.00
2023-04-23T12:34:56.969Z,93.30
2023-04-23T12:39:49.152Z,93.60
2023-04-23T12:44:41.216Z,92.90
2023-04-23T12:49:34.867Z,93.20
2023-04-23T12:54:37.862Z,91.90
2023-04-23T12:59:31.194Z,90.70
2023-04-23T13:04:23.376Z,90.60
2023-04-23T13:09:15.413Z,90.60
2023-04-23T13:14:08.187Z,90.00
2023-04-23T13:19:01.029Z,88.90
2023-04-23T13:23:56.205Z,87.10
2023-04-23T13:28:48.296Z,88.40
2023-04-23T13:33:41.191Z,86.70
2023-04-23T13:38:33.578Z,87.00
2023-04-23T13:43:25.712Z,87.10
2023-04-23T13:48:19.160Z,88.20
2023-04-23T13:53:11.755Z,87.50
2023-04-23T13:58:04.979Z,87.50
2023-04-23T14:02:57.196Z,88.30
2023-04-23T14:07:49.544Z,89.90
2023-04-23T14:12:41.718Z,89.70
2023-04-23T14:17:35.673Z,90.00
2023-04-23T14:22:28.231Z,89.80
2023-04-23T14:27:20.267Z,89.90
2023-04-23T14:32:12.943Z,89.20
2023-04-23T14:37:05.546Z,89.40
2023-04-23T14:41:57.579Z,90.40
2023-04-23T14:46:51.220Z,90.60
2023-04-23T14:51:44.543Z,91.20
2023-04-23T14:56:37.295Z,92.60
2023-04-23T15:01:32.160Z,92.30
2023-04-23T15:06:24.272Z,93.00
2023-04-23T15:11:16.382Z,93.30
2023-04-23T15:16:26.333Z,93.50
2023-04-23T15:21:28.600Z,93.80
2023-04-23T15:26:21.655Z,93.90
2023-04-23T15:31:13.846Z,93.80
2023-04-23T15:36:06.004Z,94.40
2023-04-23T15:40:58.355Z,94.50
2023-04-23T15:45:50.457Z,96.60
2023-04-23T15:50:43.341Z,96.90
2023-04-23T15:55:35.510Z,99.70
2023-04-23T16:00:28.628Z,99.90
2023-04-23T16:05:20.808Z,99.90
2023-04-23T16:10:12.973Z,99.90
2023-04-23T16:15:06.683Z,99.90
2023-04-23T16:19:58.760Z,99.90
2023-04-23T16:24:50.945Z,99.90
2023-04-23T16:29:43.382Z,99.90
2023-04-23T16:34:35.592Z,99.90
2023-04-23T16:39:27.642Z,99.90
2023-04-23T16:44:19.825Z,99.90
2023-04-23T16:49:13.503Z,99.90
2023-04-23T16:54:06.352Z,99.90
2023-04-23T16:58:58.591Z,99.90
2023-04-23T17:03:51.107Z,99.90
2023-04-23T17:08:43.283Z,99.90
2023-04-23T17:13:35.428Z,99.90
2023-04-23T17:18:27.681Z,99.90
2023-04-23T17:23:19.692Z,99.90
2023-04-23T17:28:11.753Z,99.90
2023-04-23T17:33:03.855Z,99.90
2023-04-23T17:37:55.977Z,99.90
2023-04-23T17:42:47.963Z,99.90
2023-04-23T17:47:40.976Z,99.90
2023-04-23T17:52:33.083Z,99.90
2023-04-23T17:57:25.616Z,99.90
2023-04-23T18:02:17.928Z,99.90
2023-04-23T18:07:10.133Z,99.90
2023-04-23T18:12:04.050Z,99.90
2023-04-23T18:16:56.280Z,99.90
2023-04-23T18:21:49.962Z,99.90
2023-04-23T18:26:42.066Z,99.90
2023-04-23T18:31:34.083Z,99.90
2023-04-23T18:36:33.548Z,99.90
2023-04-23T18:41:25.723Z,99.90
2023-04-23T18:46:17.909Z,99.90
2023-04-23T18:51:29.073Z,99.90
2023-04-23T18:56:21.245Z,99.90
2023-04-23T19:01:13.758Z,99.90
2023-04-23T19:06:07.950Z,99.90
2023-04-23T19:11:00.413Z,99.90
2023-04-23T19:15:52.555Z,99.90
2023-04-23T19:20:44.999Z,99.90
2023-04-23T19:25:37.335Z,99.90
2023-04-23T19:30:30.651Z,99.90
2023-04-23T19:35:22.689Z,99.90
2023-04-23T19:40:14.925Z,99.90
2023-04-23T19:45:08.555Z,99.90
2023-04-23T19:50:00.657Z,99.90
2023-04-23T19:54:52.659Z,99.90
2023-04-23T19:59:45.931Z,99.90
2023-04-23T20:04:38.200Z,99.90
2023-04-23T20:09:30.445Z,99.90
2023-04-23T20:14:24.762Z,99.90
2023-04-23T20:19:17.528Z,99.90
2023-04-23T20:24:10.609Z,99.90
2023-04-23T20:29:02.842Z,99.90
2023-04-23T20:33:55.034Z,99.90
2023-04-23T20:38:47.613Z,99.90
2023-04-23T20:43:42.445Z,99.90
2023-04-23T20:48:34.818Z,99.90
2023-04-23T20:53:26.921Z,99.90
2023-04-23T20:58:18.889Z,99.90
2023-04-23T21:03:11.482Z,99.90
2023-04-23T21:08:03.796Z,99.90
2023-04-23T21:12:55.933Z,99.90
2023-04-23T21:17:47.971Z,99.90
2023-04-23T21:22:39.977Z,99.90
2023-04-23T21:27:32.039Z,99.90
2023-04-23T21:32:24.134Z,99.90
2023-04-23T21:37:16.217Z,99.90
2023-04-23T21:42:08.242Z,99.90
2023-04-23T21:47:00.433Z,99.90
2023-04-23T21:51:54.658Z,99.90
2023-04-23T21:56:46.662Z,99.90
2023-04-23T22:01:38.678Z,99.90
2023-04-23T22:06:31.239Z,99.90
2023-04-23T22:11:23.450Z,99.90
2023-04-23T22:16:27.429Z,99.90
2023-04-23T22:21:20.527Z,99.90
2023-04-23T22:26:12.959Z,99.90
2023-04-23T22:31:05.100Z,99.90
2023-04-23T22:35:57.094Z,99.90
2023-04-23T22:40:49.102Z,99.90
2023-04-23T22:45:41.178Z,99.90
2023-04-23T22:50:33.270Z,99.90
2023-04-23T22:55:25.655Z,99.90
2023-04-23T23:00:17.828Z,99.90
2023-04-23T23:05:10.306Z,99.90
2023-04-23T23:10:05.053Z,99.90
2023-04-23T23:14:57.038Z,99.90
2023-04-23T23:19:49.069Z,99.90
2023-04-23T23:24:41.120Z,99.90
2023-04-23T23:29:33.166Z,99.90
2023-04-23T23:34:25.196Z,99.90
2023-04-23T23:39:20.062Z,99.90
2023-04-23T23:44:12.113Z,99.90
2023-04-23T23:49:04.137Z,99.90
2023-04-23T23:53:56.141Z,99.90
2023-04-23T23:58:48.134Z,99.90
